sensor_id;sensor_type;location;lat;lon;timestamp;pressure;altitude;pressure_sealevel;temperature;humidity
72465;BME280;60471;52.150;4.508;2022-07-30T00:00:30;101657.56;;;19.91;64.88
72465;BME280;60471;52.150;4.508;2022-07-30T00:02:56;101660.22;;;19.91;64.80
72465;BME280;60471;52.150;4.508;2022-07-30T00:05:22;101654.47;;;19.84;65.25
72465;BME280;60471;52.150;4.508;2022-07-30T00:07:48;101662.66;;;19.70;65.79
72465;BME280;60471;52.150;4.508;2022-07-30T00:10:15;101662.66;;;19.70;65.75
72465;BME280;60471;52.150;4.508;2022-07-30T00:12:41;101658.59;;;19.64;65.85
72465;BME280;60471;52.150;4.508;2022-07-30T00:15:08;101655.91;;;19.64;65.77
72465;BME280;60471;52.150;4.508;2022-07-30T00:17:34;101664.50;;;19.69;65.69
72465;BME280;60471;52.150;4.508;2022-07-30T00:20:00;101661.06;;;19.67;65.70
72465;BME280;60471;52.150;4.508;2022-07-30T00:22:27;101653.81;;;19.57;65.99
72465;BME280;60471;52.150;4.508;2022-07-30T00:24:53;101651.44;;;19.52;65.63
72465;BME280;60471;52.150;4.508;2022-07-30T00:27:19;101642.88;;;19.60;65.43
72465;BME280;60471;52.150;4.508;2022-07-30T00:29:45;101640.63;;;19.66;65.37
72465;BME280;60471;52.150;4.508;2022-07-30T00:32:11;101638.59;;;19.57;65.56
72465;BME280;60471;52.150;4.508;2022-07-30T00:34:37;101634.72;;;19.61;65.50
72465;BME280;60471;52.150;4.508;2022-07-30T00:37:04;101641.56;;;19.53;65.92
72465;BME280;60471;52.150;4.508;2022-07-30T00:39:30;101639.25;;;19.48;65.76
72465;BME280;60471;52.150;4.508;2022-07-30T00:42:01;101642.34;;;19.42;65.85
72465;BME280;60471;52.150;4.508;2022-07-30T00:44:29;101634.63;;;19.50;65.77
72465;BME280;60471;52.150;4.508;2022-07-30T00:46:56;101628.97;;;19.42;65.83
72465;BME280;60471;52.150;4.508;2022-07-30T00:49:22;101633.53;;;19.53;65.66
72465;BME280;60471;52.150;4.508;2022-07-30T00:51:49;101633.25;;;19.57;65.08
72465;BME280;60471;52.150;4.508;2022-07-30T00:54:17;101625.00;;;19.60;65.07
72465;BME280;60471;52.150;4.508;2022-07-30T00:56:43;101632.78;;;19.63;65.25
72465;BME280;60471;52.150;4.508;2022-07-30T00:59:09;101627.91;;;19.57;65.35
72465;BME280;60471;52.150;4.508;2022-07-30T01:01:36;101630.03;;;19.65;64.62
72465;BME280;60471;52.150;4.508;2022-07-30T01:04:02;101631.09;;;19.62;64.97
72465;BME280;60471;52.150;4.508;2022-07-30T01:06:29;101627.78;;;19.59;64.88
72465;BME280;60471;52.150;4.508;2022-07-30T01:08:55;101622.53;;;19.57;64.93
72465;BME280;60471;52.150;4.508;2022-07-30T01:11:26;101629.50;;;19.47;65.37
72465;BME280;60471;52.150;4.508;2022-07-30T01:13:56;101628.03;;;19.43;65.43
72465;BME280;60471;52.150;4.508;2022-07-30T01:16:22;101627.38;;;19.39;65.97
72465;BME280;60471;52.150;4.508;2022-07-30T01:18:49;101628.13;;;19.41;65.68
72465;BME280;60471;52.150;4.508;2022-07-30T01:21:39;101627.78;;;19.46;65.26
72465;BME280;60471;52.150;4.508;2022-07-30T01:24:32;101624.38;;;19.44;65.15
72465;BME280;60471;52.150;4.508;2022-07-30T01:27:01;101630.91;;;19.40;65.30
72465;BME280;60471;52.150;4.508;2022-07-30T01:29:29;101630.78;;;19.41;65.26
72465;BME280;60471;52.150;4.508;2022-07-30T01:31:59;101631.31;;;19.47;64.97
72465;BME280;60471;52.150;4.508;2022-07-30T01:34:33;101633.66;;;19.51;65.16
72465;BME280;60471;52.150;4.508;2022-07-30T01:37:03;101626.94;;;19.46;65.29
72465;BME280;60471;52.150;4.508;2022-07-30T01:39:34;101633.38;;;19.43;65.22
72465;BME280;60471;52.150;4.508;2022-07-30T01:42:02;101632.28;;;19.46;64.82
72465;BME280;60471;52.150;4.508;2022-07-30T01:44:32;101632.50;;;19.42;64.83
72465;BME280;60471;52.150;4.508;2022-07-30T01:47:00;101627.38;;;19.39;65.15
72465;BME280;60471;52.150;4.508;2022-07-30T01:49:28;101622.56;;;19.32;65.44
72465;BME280;60471;52.150;4.508;2022-07-30T01:51:56;101622.41;;;19.22;65.82
72465;BME280;60471;52.150;4.508;2022-07-30T01:54:25;101624.44;;;19.06;66.29
72465;BME280;60471;52.150;4.508;2022-07-30T01:56:55;101628.81;;;19.07;66.29
72465;BME280;60471;52.150;4.508;2022-07-30T01:59:23;101622.41;;;19.09;66.31
72465;BME280;60471;52.150;4.508;2022-07-30T02:01:53;101625.28;;;19.19;65.97
72465;BME280;60471;52.150;4.508;2022-07-30T02:04:19;101618.63;;;19.25;65.81
72465;BME280;60471;52.150;4.508;2022-07-30T02:06:51;101616.81;;;19.25;65.34
72465;BME280;60471;52.150;4.508;2022-07-30T02:09:35;101627.41;;;19.27;65.41
72465;BME280;60471;52.150;4.508;2022-07-30T02:12:09;101623.44;;;19.20;65.43
72465;BME280;60471;52.150;4.508;2022-07-30T02:15:13;101629.56;;;19.09;66.19
72465;BME280;60471;52.150;4.508;2022-07-30T02:20:30;101632.81;;;19.01;66.50
72465;BME280;60471;52.150;4.508;2022-07-30T02:23:01;101629.06;;;18.91;66.71
72465;BME280;60471;52.150;4.508;2022-07-30T02:25:34;101632.59;;;18.79;67.08
72465;BME280;60471;52.150;4.508;2022-07-30T02:28:08;101639.97;;;18.75;67.28
72465;BME280;60471;52.150;4.508;2022-07-30T02:30:43;101627.03;;;18.69;67.21
72465;BME280;60471;52.150;4.508;2022-07-30T02:33:25;101638.03;;;18.77;66.89
72465;BME280;60471;52.150;4.508;2022-07-30T02:35:55;101644.25;;;18.78;67.09
72465;BME280;60471;52.150;4.508;2022-07-30T02:38:26;101631.19;;;18.86;66.53
72465;BME280;60471;52.150;4.508;2022-07-30T02:40:56;101633.09;;;19.09;65.19
72465;BME280;60471;52.150;4.508;2022-07-30T02:43:26;101632.16;;;18.98;65.53
72465;BME280;60471;52.150;4.508;2022-07-30T02:45:56;101637.19;;;18.90;66.25
72465;BME280;60471;52.150;4.508;2022-07-30T02:48:26;101627.56;;;19.00;65.80
72465;BME280;60471;52.150;4.508;2022-07-30T02:50:54;101627.22;;;19.04;65.72
72465;BME280;60471;52.150;4.508;2022-07-30T02:53:24;101623.16;;;19.11;65.49
72465;BME280;60471;52.150;4.508;2022-07-30T02:55:54;101620.41;;;19.00;65.68
72465;BME280;60471;52.150;4.508;2022-07-30T02:58:23;101622.09;;;19.01;65.90
72465;BME280;60471;52.150;4.508;2022-07-30T03:00:52;101618.88;;;18.96;65.82
72465;BME280;60471;52.150;4.508;2022-07-30T03:03:20;101624.25;;;18.83;66.35
72465;BME280;60471;52.150;4.508;2022-07-30T03:05:54;101631.53;;;18.81;66.37
72465;BME280;60471;52.150;4.508;2022-07-30T03:08:22;101633.88;;;18.73;66.78
72465;BME280;60471;52.150;4.508;2022-07-30T03:10:52;101629.34;;;18.61;67.05
72465;BME280;60471;52.150;4.508;2022-07-30T03:13:22;101626.66;;;18.61;67.36
72465;BME280;60471;52.150;4.508;2022-07-30T03:15:51;101613.84;;;18.66;67.02
72465;BME280;60471;52.150;4.508;2022-07-30T03:18:19;101623.16;;;18.73;66.89
72465;BME280;60471;52.150;4.508;2022-07-30T03:20:52;101627.56;;;18.87;66.31
72465;BME280;60471;52.150;4.508;2022-07-30T03:23:22;101625.72;;;18.88;66.52
72465;BME280;60471;52.150;4.508;2022-07-30T03:25:58;101624.13;;;18.98;65.70
72465;BME280;60471;52.150;4.508;2022-07-30T03:28:31;101629.91;;;19.04;65.47
72465;BME280;60471;52.150;4.508;2022-07-30T03:31:00;101628.41;;;19.00;65.71
72465;BME280;60471;52.150;4.508;2022-07-30T03:33:28;101630.75;;;19.05;65.83
72465;BME280;60471;52.150;4.508;2022-07-30T03:35:55;101629.16;;;19.15;65.00
72465;BME280;60471;52.150;4.508;2022-07-30T03:38:24;101629.16;;;19.02;65.40
72465;BME280;60471;52.150;4.508;2022-07-30T03:40:52;101625.84;;;18.86;66.24
72465;BME280;60471;52.150;4.508;2022-07-30T03:43:19;101632.00;;;18.61;66.80
72465;BME280;60471;52.150;4.508;2022-07-30T03:45:47;101628.03;;;18.54;67.11
72465;BME280;60471;52.150;4.508;2022-07-30T03:48:15;101629.75;;;18.55;67.09
72465;BME280;60471;52.150;4.508;2022-07-30T03:50:43;101625.94;;;18.59;67.05
72465;BME280;60471;52.150;4.508;2022-07-30T03:53:11;101630.19;;;18.49;67.17
72465;BME280;60471;52.150;4.508;2022-07-30T03:55:38;101625.13;;;18.44;67.29
72465;BME280;60471;52.150;4.508;2022-07-30T03:58:05;101629.09;;;18.39;67.74
72465;BME280;60471;52.150;4.508;2022-07-30T04:00:32;101627.06;;;18.55;66.89
72465;BME280;60471;52.150;4.508;2022-07-30T04:02:58;101628.38;;;18.62;66.34
72465;BME280;60471;52.150;4.508;2022-07-30T04:05:24;101644.31;;;18.64;66.61
72465;BME280;60471;52.150;4.508;2022-07-30T04:07:50;101642.06;;;18.58;66.49
72465;BME280;60471;52.150;4.508;2022-07-30T04:10:17;101641.41;;;18.54;66.25
72465;BME280;60471;52.150;4.508;2022-07-30T04:12:43;101647.47;;;18.43;66.62
72465;BME280;60471;52.150;4.508;2022-07-30T04:15:09;101643.44;;;18.50;66.58
72465;BME280;60471;52.150;4.508;2022-07-30T04:17:45;101649.03;;;18.60;66.30
72465;BME280;60471;52.150;4.508;2022-07-30T04:20:22;101647.41;;;18.58;66.32
72465;BME280;60471;52.150;4.508;2022-07-30T04:22:51;101641.97;;;18.59;65.98
72465;BME280;60471;52.150;4.508;2022-07-30T04:25:19;101652.06;;;18.68;65.71
72465;BME280;60471;52.150;4.508;2022-07-30T04:27:47;101648.84;;;18.76;65.54
72465;BME280;60471;52.150;4.508;2022-07-30T04:30:13;101650.97;;;18.71;65.54
72465;BME280;60471;52.150;4.508;2022-07-30T04:32:40;101661.56;;;18.85;64.85
72465;BME280;60471;52.150;4.508;2022-07-30T04:35:07;101652.91;;;18.81;64.56
72465;BME280;60471;52.150;4.508;2022-07-30T04:37:34;101661.34;;;18.88;64.29
72465;BME280;60471;52.150;4.508;2022-07-30T04:40:00;101661.38;;;19.01;64.43
72465;BME280;60471;52.150;4.508;2022-07-30T04:42:27;101653.56;;;19.10;63.93
72465;BME280;60471;52.150;4.508;2022-07-30T04:44:54;101658.13;;;19.34;62.91
72465;BME280;60471;52.150;4.508;2022-07-30T04:47:22;101656.31;;;19.34;62.84
72465;BME280;60471;52.150;4.508;2022-07-30T04:49:51;101656.41;;;19.33;62.94
72465;BME280;60471;52.150;4.508;2022-07-30T04:52:19;101651.22;;;19.42;62.66
72465;BME280;60471;52.150;4.508;2022-07-30T04:54:55;101657.47;;;19.30;63.13
72465;BME280;60471;52.150;4.508;2022-07-30T04:57:25;101654.38;;;19.36;63.13
72465;BME280;60471;52.150;4.508;2022-07-30T04:59:53;101654.09;;;19.52;62.26
72465;BME280;60471;52.150;4.508;2022-07-30T05:02:21;101656.69;;;19.54;62.32
72465;BME280;60471;52.150;4.508;2022-07-30T05:04:51;101656.06;;;19.37;62.83
72465;BME280;60471;52.150;4.508;2022-07-30T05:07:19;101661.75;;;19.46;62.60
72465;BME280;60471;52.150;4.508;2022-07-30T05:09:47;101667.28;;;19.42;62.59
72465;BME280;60471;52.150;4.508;2022-07-30T05:12:13;101668.38;;;19.40;61.66
72465;BME280;60471;52.150;4.508;2022-07-30T05:14:39;101667.00;;;19.34;61.64
72465;BME280;60471;52.150;4.508;2022-07-30T05:17:05;101664.66;;;19.30;61.65
72465;BME280;60471;52.150;4.508;2022-07-30T05:19:31;101661.44;;;19.37;61.49
72465;BME280;60471;52.150;4.508;2022-07-30T05:21:58;101665.28;;;19.46;61.00
72465;BME280;60471;52.150;4.508;2022-07-30T05:24:25;101667.72;;;19.49;60.88
72465;BME280;60471;52.150;4.508;2022-07-30T05:26:51;101673.19;;;19.48;61.13
72465;BME280;60471;52.150;4.508;2022-07-30T05:29:17;101678.44;;;19.49;61.11
72465;BME280;60471;52.150;4.508;2022-07-30T05:31:44;101679.75;;;19.56;61.17
72465;BME280;60471;52.150;4.508;2022-07-30T05:34:10;101678.66;;;19.46;61.24
72465;BME280;60471;52.150;4.508;2022-07-30T05:36:36;101684.75;;;19.48;61.16
72465;BME280;60471;52.150;4.508;2022-07-30T05:39:02;101689.59;;;19.43;60.74
72465;BME280;60471;52.150;4.508;2022-07-30T05:41:29;101690.53;;;19.55;59.95
72465;BME280;60471;52.150;4.508;2022-07-30T05:43:55;101696.66;;;19.57;59.67
72465;BME280;60471;52.150;4.508;2022-07-30T05:46:22;101696.94;;;19.52;60.13
72465;BME280;60471;52.150;4.508;2022-07-30T05:48:48;101693.75;;;19.60;59.99
72465;BME280;60471;52.150;4.508;2022-07-30T05:51:15;101688.16;;;19.50;59.67
72465;BME280;60471;52.150;4.508;2022-07-30T05:53:41;101694.59;;;19.48;59.73
72465;BME280;60471;52.150;4.508;2022-07-30T05:56:07;101691.41;;;19.55;60.12
72465;BME280;60471;52.150;4.508;2022-07-30T05:58:34;101690.53;;;19.67;59.52
72465;BME280;60471;52.150;4.508;2022-07-30T06:01:01;101696.28;;;19.74;59.66
72465;BME280;60471;52.150;4.508;2022-07-30T06:03:27;101697.66;;;19.80;59.66
72465;BME280;60471;52.150;4.508;2022-07-30T06:05:53;101688.59;;;19.93;59.30
72465;BME280;60471;52.150;4.508;2022-07-30T06:08:19;101704.91;;;19.90;59.45
72465;BME280;60471;52.150;4.508;2022-07-30T06:10:46;101702.91;;;19.81;59.49
72465;BME280;60471;52.150;4.508;2022-07-30T06:13:12;101702.41;;;19.76;59.19
72465;BME280;60471;52.150;4.508;2022-07-30T06:15:38;101704.44;;;19.96;58.78
72465;BME280;60471;52.150;4.508;2022-07-30T06:18:04;101698.94;;;19.87;58.70
72465;BME280;60471;52.150;4.508;2022-07-30T06:20:30;101700.97;;;19.83;59.12
72465;BME280;60471;52.150;4.508;2022-07-30T06:22:57;101700.56;;;19.77;58.58
72465;BME280;60471;52.150;4.508;2022-07-30T06:25:23;101700.09;;;19.83;58.69
72465;BME280;60471;52.150;4.508;2022-07-30T06:27:49;101703.22;;;19.89;58.89
72465;BME280;60471;52.150;4.508;2022-07-30T06:30:15;101702.56;;;19.86;58.97
72465;BME280;60471;52.150;4.508;2022-07-30T06:32:41;101693.91;;;20.06;58.30
72465;BME280;60471;52.150;4.508;2022-07-30T06:35:10;101687.69;;;20.06;58.56
72465;BME280;60471;52.150;4.508;2022-07-30T06:37:36;101690.00;;;19.99;58.24
72465;BME280;60471;52.150;4.508;2022-07-30T06:40:03;101687.44;;;19.97;58.42
72465;BME280;60471;52.150;4.508;2022-07-30T06:42:30;101682.88;;;20.11;58.34
72465;BME280;60471;52.150;4.508;2022-07-30T06:44:57;101690.09;;;20.21;57.99
72465;BME280;60471;52.150;4.508;2022-07-30T06:47:23;101691.44;;;20.27;57.94
72465;BME280;60471;52.150;4.508;2022-07-30T06:49:57;101698.06;;;20.34;57.86
72465;BME280;60471;52.150;4.508;2022-07-30T06:52:25;101696.94;;;20.25;58.01
72465;BME280;60471;52.150;4.508;2022-07-30T06:54:52;101696.81;;;20.03;57.18
72465;BME280;60471;52.150;4.508;2022-07-30T06:57:18;101699.25;;;20.06;56.60
72465;BME280;60471;52.150;4.508;2022-07-30T06:59:44;101695.91;;;20.15;57.16
72465;BME280;60471;52.150;4.508;2022-07-30T07:02:10;101699.84;;;20.22;56.92
72465;BME280;60471;52.150;4.508;2022-07-30T07:04:36;101695.84;;;20.28;56.25
72465;BME280;60471;52.150;4.508;2022-07-30T07:07:03;101695.66;;;20.18;56.86
72465;BME280;60471;52.150;4.508;2022-07-30T07:09:29;101703.03;;;20.27;56.55
72465;BME280;60471;52.150;4.508;2022-07-30T07:11:55;101701.72;;;20.33;56.41
72465;BME280;60471;52.150;4.508;2022-07-30T07:14:21;101709.53;;;20.36;56.88
72465;BME280;60471;52.150;4.508;2022-07-30T07:16:48;101708.03;;;20.45;57.31
72465;BME280;60471;52.150;4.508;2022-07-30T07:19:14;101707.00;;;20.70;56.54
72465;BME280;60471;52.150;4.508;2022-07-30T07:21:41;101708.38;;;20.75;56.82
72465;BME280;60471;52.150;4.508;2022-07-30T07:24:07;101707.28;;;20.89;56.59
72465;BME280;60471;52.150;4.508;2022-07-30T07:26:34;101707.69;;;20.96;56.49
72465;BME280;60471;52.150;4.508;2022-07-30T07:29:01;101705.28;;;20.69;56.25
72465;BME280;60471;52.150;4.508;2022-07-30T07:31:27;101710.16;;;20.64;55.99
72465;BME280;60471;52.150;4.508;2022-07-30T07:33:53;101706.00;;;20.60;55.95
72465;BME280;60471;52.150;4.508;2022-07-30T07:36:20;101705.25;;;20.58;56.00
72465;BME280;60471;52.150;4.508;2022-07-30T07:38:47;101715.94;;;20.81;55.44
72465;BME280;60471;52.150;4.508;2022-07-30T07:41:14;101709.53;;;21.06;55.02
72465;BME280;60471;52.150;4.508;2022-07-30T07:43:41;101699.88;;;21.04;54.06
72465;BME280;60471;52.150;4.508;2022-07-30T07:46:07;101715.81;;;20.83;52.62
72465;BME280;60471;52.150;4.508;2022-07-30T07:48:34;101706.44;;;20.89;53.15
72465;BME280;60471;52.150;4.508;2022-07-30T07:51:00;101708.53;;;20.96;53.26
72465;BME280;60471;52.150;4.508;2022-07-30T07:53:26;101712.31;;;21.05;53.29
72465;BME280;60471;52.150;4.508;2022-07-30T07:55:52;101714.53;;;21.11;53.78
72465;BME280;60471;52.150;4.508;2022-07-30T07:58:18;101704.44;;;21.26;52.96
72465;BME280;60471;52.150;4.508;2022-07-30T08:00:45;101710.53;;;21.17;51.44
72465;BME280;60471;52.150;4.508;2022-07-30T08:03:11;101702.69;;;21.25;51.74
72465;BME280;60471;52.150;4.508;2022-07-30T08:05:37;101707.88;;;21.28;51.35
72465;BME280;60471;52.150;4.508;2022-07-30T08:08:04;101705.06;;;21.29;51.65
72465;BME280;60471;52.150;4.508;2022-07-30T08:10:30;101707.94;;;21.15;51.95
72465;BME280;60471;52.150;4.508;2022-07-30T08:12:56;101707.72;;;21.18;51.25
72465;BME280;60471;52.150;4.508;2022-07-30T08:15:23;101713.22;;;21.17;51.29
72465;BME280;60471;52.150;4.508;2022-07-30T08:17:49;101696.38;;;21.37;50.91
72465;BME280;60471;52.150;4.508;2022-07-30T08:20:16;101699.06;;;21.48;50.88
72465;BME280;60471;52.150;4.508;2022-07-30T08:22:42;101698.44;;;21.22;50.18
72465;BME280;60471;52.150;4.508;2022-07-30T08:25:09;101698.72;;;21.30;50.43
72465;BME280;60471;52.150;4.508;2022-07-30T08:27:36;101696.50;;;21.35;50.44
72465;BME280;60471;52.150;4.508;2022-07-30T08:30:04;101694.31;;;21.52;50.48
72465;BME280;60471;52.150;4.508;2022-07-30T08:32:31;101695.28;;;21.62;49.56
72465;BME280;60471;52.150;4.508;2022-07-30T08:34:57;101707.97;;;21.49;50.40
72465;BME280;60471;52.150;4.508;2022-07-30T08:37:24;101705.41;;;21.36;50.22
72465;BME280;60471;52.150;4.508;2022-07-30T08:39:50;101702.38;;;21.40;50.26
72465;BME280;60471;52.150;4.508;2022-07-30T08:42:16;101700.69;;;21.39;50.93
72465;BME280;60471;52.150;4.508;2022-07-30T08:44:44;101702.13;;;21.66;50.04
72465;BME280;60471;52.150;4.508;2022-07-30T08:47:15;101707.44;;;21.88;49.41
72465;BME280;60471;52.150;4.508;2022-07-30T08:49:46;101705.75;;;21.76;49.87
72465;BME280;60471;52.150;4.508;2022-07-30T08:52:13;101700.50;;;21.75;50.61
72465;BME280;60471;52.150;4.508;2022-07-30T08:54:40;101705.16;;;21.84;50.33
72465;BME280;60471;52.150;4.508;2022-07-30T08:57:07;101713.19;;;22.06;49.53
72465;BME280;60471;52.150;4.508;2022-07-30T08:59:33;101720.72;;;22.01;49.18
72465;BME280;60471;52.150;4.508;2022-07-30T09:02:00;101723.06;;;22.06;48.51
72465;BME280;60471;52.150;4.508;2022-07-30T09:04:26;101721.25;;;22.06;48.50
72465;BME280;60471;52.150;4.508;2022-07-30T09:06:52;101723.69;;;21.98;48.31
72465;BME280;60471;52.150;4.508;2022-07-30T09:09:18;101715.22;;;22.03;48.67
72465;BME280;60471;52.150;4.508;2022-07-30T09:11:44;101715.63;;;22.09;49.41
72465;BME280;60471;52.150;4.508;2022-07-30T09:14:12;101718.41;;;22.19;48.10
72465;BME280;60471;52.150;4.508;2022-07-30T09:16:40;101732.06;;;22.27;47.58
72465;BME280;60471;52.150;4.508;2022-07-30T09:19:17;101731.66;;;22.32;48.39
72465;BME280;60471;52.150;4.508;2022-07-30T09:22:00;101733.44;;;22.10;47.70
72465;BME280;60471;52.150;4.508;2022-07-30T09:24:27;101731.41;;;22.35;47.73
72465;BME280;60471;52.150;4.508;2022-07-30T09:26:58;101726.44;;;22.30;47.70
72465;BME280;60471;52.150;4.508;2022-07-30T09:29:30;101728.50;;;22.38;47.66
72465;BME280;60471;52.150;4.508;2022-07-30T09:32:01;101722.28;;;22.58;47.34
72465;BME280;60471;52.150;4.508;2022-07-30T09:34:35;101723.78;;;22.51;45.85
72465;BME280;60471;52.150;4.508;2022-07-30T09:37:15;101720.94;;;22.52;46.48
72465;BME280;60471;52.150;4.508;2022-07-30T09:39:42;101706.41;;;22.76;46.50
72465;BME280;60471;52.150;4.508;2022-07-30T09:42:21;101713.59;;;22.87;46.15
72465;BME280;60471;52.150;4.508;2022-07-30T09:44:50;101712.53;;;22.99;46.11
72465;BME280;60471;52.150;4.508;2022-07-30T09:47:33;101703.38;;;23.11;45.38
72465;BME280;60471;52.150;4.508;2022-07-30T09:50:06;101707.13;;;23.20;45.85
72465;BME280;60471;52.150;4.508;2022-07-30T09:52:36;101706.06;;;23.41;45.05
72465;BME280;60471;52.150;4.508;2022-07-30T09:55:04;101706.50;;;23.37;45.46
72465;BME280;60471;52.150;4.508;2022-07-30T09:57:31;101697.25;;;23.60;45.20
72465;BME280;60471;52.150;4.508;2022-07-30T10:00:16;101707.38;;;23.78;45.07
72465;BME280;60471;52.150;4.508;2022-07-30T10:02:44;101703.84;;;23.77;44.61
72465;BME280;60471;52.150;4.508;2022-07-30T10:05:14;101705.09;;;23.73;44.88
72465;BME280;60471;52.150;4.508;2022-07-30T10:10:22;101710.97;;;24.07;44.46
72465;BME280;60471;52.150;4.508;2022-07-30T10:12:59;101706.75;;;24.24;44.82
72465;BME280;60471;52.150;4.508;2022-07-30T10:15:31;101712.13;;;24.14;44.69
72465;BME280;60471;52.150;4.508;2022-07-30T10:18:00;101718.56;;;24.33;43.83
72465;BME280;60471;52.150;4.508;2022-07-30T10:20:28;101720.53;;;24.40;43.32
72465;BME280;60471;52.150;4.508;2022-07-30T10:22:55;101728.22;;;24.64;42.81
72465;BME280;60471;52.150;4.508;2022-07-30T10:25:24;101721.94;;;24.83;43.10
72465;BME280;60471;52.150;4.508;2022-07-30T10:27:53;101732.44;;;25.05;42.17
72465;BME280;60471;52.150;4.508;2022-07-30T10:30:19;101736.28;;;25.03;42.87
72465;BME280;60471;52.150;4.508;2022-07-30T10:32:45;101719.91;;;25.14;42.69
72465;BME280;60471;52.150;4.508;2022-07-30T10:35:12;101726.31;;;25.13;42.71
72465;BME280;60471;52.150;4.508;2022-07-30T10:37:44;101718.75;;;25.17;41.88
72465;BME280;60471;52.150;4.508;2022-07-30T10:45:55;101719.91;;;25.14;41.60
72465;BME280;60471;52.150;4.508;2022-07-30T10:48:34;101711.97;;;25.03;41.61
72465;BME280;60471;52.150;4.508;2022-07-30T10:51:00;101721.78;;;25.04;41.38
72465;BME280;60471;52.150;4.508;2022-07-30T10:53:36;101716.97;;;24.88;42.11
72465;BME280;60471;52.150;4.508;2022-07-30T10:56:11;101712.66;;;24.95;41.60
72465;BME280;60471;52.150;4.508;2022-07-30T10:59:14;101717.94;;;24.97;41.22
72465;BME280;60471;52.150;4.508;2022-07-30T11:06:44;101706.41;;;24.95;40.96
72465;BME280;60471;52.150;4.508;2022-07-30T11:09:33;101709.88;;;24.68;42.11
72465;BME280;60471;52.150;4.508;2022-07-30T11:12:08;101711.31;;;24.33;42.73
72465;BME280;60471;52.150;4.508;2022-07-30T11:15:01;101711.97;;;24.16;42.82
72465;BME280;60471;52.150;4.508;2022-07-30T11:20:35;101711.16;;;24.25;43.49
72465;BME280;60471;52.150;4.508;2022-07-30T11:23:53;101709.75;;;24.31;43.47
72465;BME280;60471;52.150;4.508;2022-07-30T11:25:54;101718.69;;;24.41;43.27
72465;BME280;60471;52.150;4.508;2022-07-30T11:28:43;101711.88;;;24.46;42.88
72465;BME280;60471;52.150;4.508;2022-07-30T11:31:33;101713.59;;;24.57;42.72
72465;BME280;60471;52.150;4.508;2022-07-30T11:37:18;101719.84;;;24.67;43.27
72465;BME280;60471;52.150;4.508;2022-07-30T11:42:38;101723.38;;;24.77;42.60
72465;BME280;60471;52.150;4.508;2022-07-30T11:47:42;101719.22;;;24.83;43.18
72465;BME280;60471;52.150;4.508;2022-07-30T11:50:36;101716.81;;;24.99;42.88
72465;BME280;60471;52.150;4.508;2022-07-30T11:53:05;101710.38;;;25.20;43.15
72465;BME280;60471;52.150;4.508;2022-07-30T11:55:36;101712.22;;;25.56;42.62
72465;BME280;60471;52.150;4.508;2022-07-30T11:58:09;101719.69;;;25.72;41.22
72465;BME280;60471;52.150;4.508;2022-07-30T12:00:47;101709.31;;;25.67;41.44
72465;BME280;60471;52.150;4.508;2022-07-30T12:03:16;101712.00;;;25.67;42.04
72465;BME280;60471;52.150;4.508;2022-07-30T12:05:44;101710.88;;;25.70;41.75
72465;BME280;60471;52.150;4.508;2022-07-30T12:08:12;101699.69;;;25.83;42.36
72465;BME280;60471;52.150;4.508;2022-07-30T12:10:39;101714.13;;;26.01;41.50
72465;BME280;60471;52.150;4.508;2022-07-30T12:13:11;101708.59;;;25.93;41.61
72465;BME280;60471;52.150;4.508;2022-07-30T12:15:48;101712.25;;;25.84;41.92
72465;BME280;60471;52.150;4.508;2022-07-30T12:18:27;101715.88;;;25.65;42.41
72465;BME280;60471;52.150;4.508;2022-07-30T12:20:58;101715.09;;;25.45;41.56
72465;BME280;60471;52.150;4.508;2022-07-30T12:23:26;101719.13;;;25.68;41.24
72465;BME280;60471;52.150;4.508;2022-07-30T12:25:54;101713.59;;;25.70;42.54
72465;BME280;60471;52.150;4.508;2022-07-30T12:28:25;101716.69;;;25.38;42.62
72465;BME280;60471;52.150;4.508;2022-07-30T12:30:54;101716.44;;;25.31;42.98
72465;BME280;60471;52.150;4.508;2022-07-30T12:33:21;101729.28;;;25.20;42.71
72465;BME280;60471;52.150;4.508;2022-07-30T12:35:49;101715.97;;;25.08;43.33
72465;BME280;60471;52.150;4.508;2022-07-30T12:38:19;101721.94;;;25.02;43.79
72465;BME280;60471;52.150;4.508;2022-07-30T12:41:04;101703.03;;;25.02;43.60
72465;BME280;60471;52.150;4.508;2022-07-30T12:43:53;101700.09;;;25.33;43.26
72465;BME280;60471;52.150;4.508;2022-07-30T12:46:25;101704.75;;;25.40;43.21
72465;BME280;60471;52.150;4.508;2022-07-30T12:48:55;101707.19;;;25.34;43.62
72465;BME280;60471;52.150;4.508;2022-07-30T12:51:34;101708.00;;;24.97;44.78
72465;BME280;60471;52.150;4.508;2022-07-30T12:54:17;101707.03;;;24.69;45.56
72465;BME280;60471;52.150;4.508;2022-07-30T12:56:57;101709.03;;;24.77;45.64
72465;BME280;60471;52.150;4.508;2022-07-30T12:59:26;101696.56;;;24.56;46.22
72465;BME280;60471;52.150;4.508;2022-07-30T13:01:54;101705.47;;;24.76;45.61
72465;BME280;60471;52.150;4.508;2022-07-30T13:04:22;101699.94;;;24.68;46.08
72465;BME280;60471;52.150;4.508;2022-07-30T13:07:09;101698.09;;;24.78;46.21
72465;BME280;60471;52.150;4.508;2022-07-30T13:09:37;101694.22;;;24.81;46.66
72465;BME280;60471;52.150;4.508;2022-07-30T13:12:11;101695.94;;;24.82;46.34
72465;BME280;60471;52.150;4.508;2022-07-30T13:14:38;101687.66;;;24.93;45.94
72465;BME280;60471;52.150;4.508;2022-07-30T13:17:04;101689.19;;;25.15;44.50
72465;BME280;60471;52.150;4.508;2022-07-30T13:19:31;101685.97;;;24.92;46.17
72465;BME280;60471;52.150;4.508;2022-07-30T13:21:58;101681.56;;;24.91;45.19
72465;BME280;60471;52.150;4.508;2022-07-30T13:24:24;101680.69;;;25.10;44.78
72465;BME280;60471;52.150;4.508;2022-07-30T13:26:50;101675.81;;;25.23;45.44
72465;BME280;60471;52.150;4.508;2022-07-30T13:29:16;101678.00;;;25.37;45.70